Casper, WY

5:19 AM MDT on October 21, 2014 (GMT -0600)
RAWS CASPER MOUNTAIN WY US | Change Station
CLOSE
Current Station
Personal Weather Station
Location: Casper, WY
Elevation: 7740 ft
Nearby Weather Stations

Elev 7740 ft 42.71 °N, 106.35 °W | Updated 1 hour ago

Clear
Clear
50 °F
Feels Like 46 °F
N
9
Wind Variable Wind from SW
Gusts 18.0 mph

Today
High -- | Low -- °F
--% Chance of Precip.
Yesterday
High -- | Low -- °F
Precip. -- in
7:25 AM 6:13 PM
Waning Crescent, 6% visible
Pressure 29.81 in
Visibility 10.0 miles
Clouds Clear
Windchill 46 °F
Dew Point 35 °F
Humidity 56%
Rainfall 0.00 in
Snow Depth 0 in , 0 in
UV 0 out of 12
Pollen 3.50 out of 12
Air Quality Not available.
Flu Activity Sporadic
METAR KCPR 211053Z 23009KT 10SM CLR 11/02 A2996 RMK AO2 SLP092 T01060017

More Conditions Fewer Conditions

Pressure 29.81 in
Visibility 10.0 miles
Clouds Clear
Windchill 46 °F
Dew Point 35 °F
Humidity 56%
Rainfall 0.00 in
Snow Depth 0 in , 0 in
UV 0 out of 12
Pollen 3.50 out of 12
Air Quality Not available.
Flu Activity Sporadic
METAR KCPR 211053Z 23009KT 10SM CLR 11/02 A2996 RMK AO2 SLP092 T01060017

More Conditions Fewer Conditions

10-Day Weather Forecast

Almanac

Astronomy

Oct. 21, 2014 Rise Set
Actual Time 7:25 AM MDT 6:13 PM MDT
Civil Twilight 6:57 AM MDT 6:42 PM MDT
Nautical Twilight 6:24 AM MDT 7:15 PM MDT
Astronomical Twilight 5:51 AM MDT 7:47 PM MDT
Moon 5:09 AM MDT 5:11 PM MDT
Length of Visible Light 11h 45m
Length of Day
10h 47m
Tomorrow will be 2m 44s shorter.
Waning Crescent, 6% of the Moon is Illuminated
Today
Waning Crescent
Oct 23
New
Oct 30
First Quarter
Nov 6
Full
Nov 14
Last Quarter

Today's Extremes

State Highs State Lows

Community

WunderPhotos

Upload Photos

1,763,625 photos uploaded!

Nearby

Snow Depth

Station Depth Elevation
Casper Mountain 0 in 7850 ft
Reno Hill 0 in 8500 ft
Laprele Creek 0 in 8375 ft
Windy Peak 0 in 7900 ft
Sand Lake 5 in 10050 ft

Earthquake Activity

City Distance Mag. Time & Date
No recent earthquake activity has been reported nearby.
Minimum magnitude displayed is 2.5.

Coastal Water Temperatures

Place Temperature
No Stations Reporting

Nearby Weather Stations